Time;durP1;ratioP1;P1;durP2;ratioP2;P2;SDS_P1;SDS_P2;PMS_P1;PMS_P2;Temp;Humidity;BMP_temperature;BMP_pressure;BME280_temperature;BME280_humidity;BME280_pressure;Samples;Min_cycle;Max_cycle;Signal;HPM_P1;HPM_P2
2021/11/04 00:04:42;;;;;;;59.47;48.35;;;21.90;53.90;;;;;;4578655;57;21122;-26
2021/11/04 00:09:43;;;;;;;54.35;46.67;;;21.90;53.90;;;;;;4556894;61;21055;-30
2021/11/04 00:14:59;;;;;;;56.78;47.33;;;21.90;53.90;;;;;;4562219;57;21047;-25
2021/11/04 00:20:00;;;;;;;59.45;47.75;;;21.90;53.90;;;;;;4580725;57;21574;-27
2021/11/04 00:25:01;;;;;;;57.70;47.00;;;21.80;53.80;;;;;;4557373;61;21151;-26
2021/11/04 00:30:04;;;;;;;58.35;48.05;;;21.80;53.90;;;;;;4566326;57;21561;-21
2021/11/04 00:35:06;;;;;;;60.15;47.78;;;21.90;53.90;;;;;;4583346;57;21095;-24
2021/11/04 00:40:25;;;;;;;52.85;44.70;;;21.80;53.80;;;;;;4567220;57;21170;-25
2021/11/04 00:45:26;;;;;;;52.33;44.85;;;21.90;53.90;;;;;;4578059;57;21087;-26
2021/11/04 00:50:28;;;;;;;56.45;46.08;;;21.80;53.80;;;;;;4557909;57;21106;-28
2021/11/04 00:55:29;;;;;;;59.03;48.15;;;21.80;53.80;;;;;;4557222;61;21050;-27
2021/11/04 01:00:30;;;;;;;55.75;45.45;;;21.80;53.80;;;;;;4605697;57;21063;-32
2021/11/04 01:05:31;;;;;;;55.08;45.40;;;21.80;53.80;;;;;;4559562;57;21501;-31
2021/11/04 01:10:32;;;;;;;53.90;44.03;;;21.90;53.80;;;;;;4558009;57;21099;-25
2021/11/04 01:15:33;;;;;;;51.40;43.67;;;21.80;53.80;;;;;;4559430;57;21557;-28
2021/11/04 01:20:34;;;;;;;54.25;43.97;;;21.90;53.80;;;;;;4558943;57;21109;-29
2021/11/04 01:25:35;;;;;;;52.35;44.67;;;21.90;53.90;;;;;;4559072;57;21561;-23
2021/11/04 01:30:39;;;;;;;53.05;44.35;;;21.80;53.80;;;;;;4565983;57;21585;-29
2021/11/04 01:35:40;;;;;;;50.42;41.00;;;21.80;53.80;;;;;;4557533;61;21039;-23
2021/11/04 01:40:42;;;;;;;53.17;43.30;;;21.90;53.80;;;;;;4562701;57;21131;-21
2021/11/04 01:45:43;;;;;;;51.53;43.28;;;21.90;53.80;;;;;;4578166;57;21095;-31
2021/11/04 01:50:44;;;;;;;51.08;41.67;;;21.80;53.80;;;;;;4577812;57;21114;-25
2021/11/04 01:55:45;;;;;;;48.47;40.42;;;21.90;53.80;;;;;;4578627;57;21166;-24
2021/11/04 02:00:46;;;;;;;52.38;42.53;;;21.80;53.80;;;;;;4568293;57;21585;-29
2021/11/04 02:09:03;;;;;;;47.75;39.40;;;21.80;53.80;;;;;;4564432;57;21509;-26
2021/11/04 02:14:13;;;;;;;50.92;41.30;;;21.80;53.80;;;;;;4580851;57;21019;-29
2021/11/04 02:20:20;;;;;;;47.67;40.95;;;21.80;53.80;;;;;;4591247;57;20987;-26
2021/11/04 02:25:30;;;;;;;48.67;40.55;;;21.80;53.80;;;;;;4578403;57;21087;-24
2021/11/04 02:30:31;;;;;;;47.55;38.38;;;21.80;53.80;;;;;;4583301;57;21035;-29
2021/11/04 02:35:33;;;;;;;45.60;38.28;;;21.90;53.80;;;;;;4573841;57;21038;-24
2021/11/04 02:40:34;;;;;;;50.22;39.80;;;21.80;53.80;;;;;;4593939;57;21083;-26
2021/11/04 02:45:36;;;;;;;46.53;38.85;;;21.80;53.80;;;;;;4586443;57;21064;-24
2021/11/04 02:50:37;;;;;;;48.55;40.67;;;21.80;53.80;;;;;;4564852;57;21585;-27
2021/11/04 02:55:38;;;;;;;44.75;38.17;;;21.80;53.80;;;;;;4557513;61;21099;-27
2021/11/04 03:00:42;;;;;;;45.65;39.00;;;21.80;53.80;;;;;;4584079;57;21521;-22
2021/11/04 03:05:43;;;;;;;46.65;37.92;;;21.90;53.90;;;;;;4586231;57;21092;-29
2021/11/04 03:10:44;;;;;;;44.60;36.50;;;21.80;53.90;;;;;;4561834;57;21594;-21
2021/11/04 03:15:57;;;;;;;46.75;38.15;;;21.80;53.90;;;;;;4558692;61;21071;-28
2021/11/04 03:20:58;;;;;;;43.67;36.80;;;21.80;53.90;;;;;;4583998;57;21019;-31
2021/11/04 03:26:00;;;;;;;44.75;36.40;;;21.80;53.90;;;;;;4585684;57;21087;-23
2021/11/04 03:31:02;;;;;;;41.75;36.28;;;21.80;53.90;;;;;;4560768;57;21513;-25
2021/11/04 03:36:05;;;;;;;43.45;36.42;;;21.80;53.90;;;;;;4569096;57;21094;-31
2021/11/04 03:41:07;;;;;;;43.03;36.25;;;21.80;54.00;;;;;;4571609;57;21039;-27
2021/11/04 03:46:08;;;;;;;44.38;36.53;;;21.80;54.00;;;;;;4574744;57;21108;-33
2021/11/04 03:51:10;;;;;;;41.65;34.63;;;21.80;54.00;;;;;;4588540;57;21629;-29
2021/11/04 03:56:11;;;;;;;43.67;35.92;;;21.80;54.00;;;;;;4558105;61;21147;-26
2021/11/04 04:01:13;;;;;;;43.17;35.55;;;21.90;54.00;;;;;;4561408;57;21047;-24
2021/11/04 04:06:13;;;;;;;41.92;34.50;;;21.80;54.00;;;;;;4572746;57;21044;-17
2021/11/04 04:11:17;;;;;;;41.45;35.45;;;21.80;54.00;;;;;;4602941;57;21594;-28
2021/11/04 04:16:19;;;;;;;40.58;34.17;;;21.80;54.00;;;;;;4567444;57;21108;-24
2021/11/04 04:21:21;;;;;;;40.70;33.25;;;21.80;54.00;;;;;;4558624;57;21047;-26
2021/11/04 04:26:22;;;;;;;41.78;34.22;;;21.80;54.00;;;;;;4606006;57;22177;-27
2021/11/04 04:31:23;;;;;;;38.17;32.28;;;21.80;54.00;;;;;;4588254;57;21130;-30
2021/11/04 04:36:24;;;;;;;39.38;33.20;;;21.80;54.10;;;;;;4562268;57;21616;-29
2021/11/04 04:41:25;;;;;;;38.90;32.80;;;21.80;54.00;;;;;;4558377;61;21445;-27
2021/11/04 04:46:25;;;;;;;37.83;32.55;;;21.80;54.00;;;;;;4562422;57;21361;-27
2021/11/04 04:51:26;;;;;;;39.97;32.78;;;21.80;54.00;;;;;;4579449;57;21032;-23
2021/11/04 04:56:27;;;;;;;38.60;31.75;;;21.80;54.00;;;;;;4557304;61;21027;-28
2021/11/04 05:01:28;;;;;;;38.42;32.13;;;21.80;54.10;;;;;;4567141;57;21111;-27
2021/11/04 05:06:29;;;;;;;37.63;31.87;;;21.80;54.10;;;;;;4560151;57;21043;-26
2021/11/04 05:11:30;;;;;;;36.42;31.15;;;21.80;54.10;;;;;;4557394;61;21056;-21
2021/11/04 05:16:31;;;;;;;35.92;29.98;;;21.90;54.20;;;;;;4580055;57;21050;-24
2021/11/04 05:21:31;;;;;;;37.30;31.55;;;21.80;54.20;;;;;;4560177;57;21091;-28
2021/11/04 05:26:32;;;;;;;36.88;30.88;;;21.80;54.20;;;;;;4620925;57;21035;-29
2021/11/04 05:31:34;;;;;;;39.22;30.88;;;21.80;54.30;;;;;;4568184;57;21567;-29
2021/11/04 05:36:35;;;;;;;37.00;30.58;;;21.80;54.20;;;;;;4578755;57;21047;-22
2021/11/04 05:41:36;;;;;;;35.42;29.60;;;21.80;54.30;;;;;;4571615;57;21542;-29
2021/11/04 05:46:36;;;;;;;34.53;29.67;;;21.80;54.30;;;;;;4567699;57;21126;-27
2021/11/04 05:51:37;;;;;;;35.50;30.75;;;21.80;54.30;;;;;;4599172;57;21505;-27
2021/11/04 05:56:38;;;;;;;36.38;30.23;;;21.80;54.30;;;;;;4562134;57;21111;-24
2021/11/04 06:01:39;;;;;;;35.63;31.02;;;21.80;54.40;;;;;;4557297;61;21079;-27
2021/11/04 06:06:40;;;;;;;33.65;29.20;;;21.80;55.00;;;;;;4570569;57;21513;-23
2021/11/04 06:11:41;;;;;;;34.92;29.25;;;21.80;54.40;;;;;;4581159;57;21064;-32
2021/11/04 06:16:42;;;;;;;36.17;30.42;;;21.90;54.40;;;;;;4568073;57;21114;-31
2021/11/04 06:21:43;;;;;;;34.10;28.95;;;21.90;54.50;;;;;;4562563;57;21661;-29
2021/11/04 06:26:44;;;;;;;36.03;29.42;;;21.80;54.40;;;;;;4600531;57;21108;-30
2021/11/04 06:31:45;;;;;;;35.85;29.70;;;21.80;54.40;;;;;;4593585;57;22325;-28
2021/11/04 06:36:46;;;;;;;36.00;29.35;;;21.90;54.50;;;;;;4562579;57;21557;-28
2021/11/04 06:41:47;;;;;;;34.05;29.30;;;21.90;54.50;;;;;;4562822;57;21035;-32
2021/11/04 06:46:49;;;;;;;36.05;29.98;;;21.80;54.40;;;;;;4558318;57;21127;-28
2021/11/04 06:51:53;;;;;;;33.55;28.38;;;21.80;54.40;;;;;;4557637;61;21525;-21
2021/11/04 06:56:56;;;;;;;33.92;29.87;;;21.80;54.40;;;;;;4587253;57;21111;-31
2021/11/04 07:02:00;;;;;;;33.25;28.98;;;21.80;54.40;;;;;;4557091;61;21067;-27
2021/11/04 07:07:10;;;;;;;33.75;28.20;;;21.80;54.50;;;;;;4568310;57;21052;-30
2021/11/04 07:12:12;;;;;;;34.85;29.48;;;21.80;54.40;;;;;;4578292;57;21582;-26
2021/11/04 07:17:15;;;;;;;34.95;29.67;;;21.80;54.40;;;;;;4600702;57;21070;-32
2021/11/04 07:23:00;;;;;;;34.40;28.73;;;21.90;54.50;;;;;;4565051;57;21155;-27
2021/11/04 07:28:15;;;;;;;32.75;28.85;;;21.80;54.40;;;;;;4557086;61;21107;-29
2021/11/04 07:33:18;;;;;;;34.63;29.95;;;21.80;54.40;;;;;;4558600;57;21007;-26
2021/11/04 07:38:22;;;;;;;34.22;28.58;;;21.80;54.40;;;;;;4557739;57;21624;-24
2021/11/04 07:43:24;;;;;;;36.53;29.75;;;21.80;55.00;;;;;;4556083;61;21015;-25
2021/11/04 07:48:26;;;;;;;33.80;29.60;;;21.90;54.50;;;;;;4559975;57;21038;-24
2021/11/04 07:53:30;;;;;;;34.90;29.67;;;21.90;54.50;;;;;;4573456;57;22226;-29
2021/11/04 07:58:30;;;;;;;33.83;28.90;;;21.90;54.50;;;;;;4591164;57;21055;-26
2021/11/04 08:03:32;;;;;;;33.50;28.60;;;21.80;54.50;;;;;;4571789;57;21046;-23
2021/11/04 08:08:35;;;;;;;34.28;28.60;;;21.90;54.50;;;;;;4592229;57;22746;-28
2021/11/04 08:13:35;;;;;;;37.83;30.70;;;21.90;54.70;;;;;;4566743;57;21486;-27
2021/11/04 08:18:36;;;;;;;38.65;31.87;;;21.90;54.90;;;;;;4576573;57;21030;-25
2021/11/04 08:23:37;;;;;;;40.33;33.50;;;22.00;55.00;;;;;;4566727;57;21063;-26
2021/11/04 08:28:38;;;;;;;44.15;35.47;;;22.00;55.00;;;;;;4566758;57;21127;-26
2021/11/04 08:33:39;;;;;;;43.28;35.97;;;22.10;55.20;;;;;;4576442;57;21091;-21
2021/11/04 08:38:40;;;;;;;47.75;38.50;;;22.10;55.20;;;;;;4564390;57;21610;-25
2021/11/04 08:43:41;;;;;;;47.95;39.47;;;22.10;55.30;;;;;;4557290;58;21059;-28
2021/11/04 08:48:42;;;;;;;55.08;41.88;;;22.10;55.40;;;;;;4565465;57;21103;-26
2021/11/04 08:53:43;;;;;;;55.78;41.30;;;22.20;55.50;;;;;;4568769;57;21019;-23
2021/11/04 08:58:44;;;;;;;52.58;40.95;;;22.20;55.70;;;;;;4565341;57;21178;-18
2021/11/04 09:03:45;;;;;;;58.33;45.00;;;22.30;56.20;;;;;;4557684;58;21626;-27
2021/11/04 09:08:46;;;;;;;59.67;43.08;;;22.30;56.20;;;;;;4556034;61;21117;-29
2021/11/04 09:13:47;;;;;;;58.90;44.63;;;22.40;56.50;;;;;;4569138;57;21056;-22
2021/11/04 09:18:48;;;;;;;61.22;44.00;;;22.40;56.60;;;;;;4569228;57;21031;-28
2021/11/04 09:23:49;;;;;;;57.25;43.60;;;22.40;56.70;;;;;;4579999;57;21268;-25
2021/11/04 09:28:50;;;;;;;59.97;44.42;;;22.50;56.90;;;;;;4564924;57;21111;-23
2021/11/04 09:33:53;;;;;;;62.45;45.92;;;22.50;56.90;;;;;;4562475;57;21034;-24
2021/11/04 09:38:54;;;;;;;65.80;46.37;;;22.50;57.00;;;;;;4594123;57;21514;-27
2021/11/04 09:43:57;;;;;;;65.43;47.33;;;22.60;57.20;;;;;;4575636;57;21035;-30
2021/11/04 09:48:58;;;;;;;70.12;49.80;;;22.60;56.90;;;;;;4566044;57;21115;-29
2021/11/04 09:53:59;;;;;;;67.12;50.35;;;22.60;57.00;;;;;;4555627;61;21192;-29
2021/11/04 09:59:00;;;;;;;69.12;50.70;;;22.60;56.90;;;;;;4573872;57;21135;-27
2021/11/04 10:04:03;;;;;;;74.05;53.63;;;22.60;56.90;;;;;;4589604;57;21043;-29
2021/11/04 10:09:10;;;;;;;76.82;57.35;;;22.60;56.90;;;;;;4562919;57;21055;-26
2021/11/04 10:14:14;;;;;;;77.63;56.40;;;22.60;56.90;;;;;;4560245;57;21517;-29
2021/11/04 10:19:17;;;;;;;77.45;56.75;;;22.60;57.00;;;;;;4570987;57;21155;-28
2021/11/04 10:24:21;;;;;;;79.97;60.65;;;22.70;57.20;;;;;;4566622;57;21437;-27
2021/11/04 10:29:24;;;;;;;79.20;59.60;;;22.70;57.30;;;;;;4567858;57;21120;-29
2021/11/04 10:35:54;;;;;;;81.78;61.45;;;22.70;57.40;;;;;;4586686;57;21082;-24
2021/11/04 10:40:54;;;;;;;79.78;58.00;;;22.70;57.70;;;;;;4564071;57;21058;-23
2021/11/04 10:46:04;;;;;;;84.15;63.33;;;22.70;57.70;;;;;;4560700;57;22108;-26
2021/11/04 10:51:05;;;;;;;81.85;59.47;;;22.70;57.80;;;;;;4559920;57;21509;-31
2021/11/04 10:56:18;;;;;;;81.20;60.45;;;22.80;58.00;;;;;;4556160;58;22102;-29
2021/11/04 11:01:34;;;;;;;87.12;63.25;;;22.80;58.00;;;;;;4575960;57;21080;-26
2021/11/04 11:06:47;;;;;;;91.90;66.60;;;22.80;58.10;;;;;;4565691;57;21027;-27
2021/11/04 11:11:51;;;;;;;92.78;67.72;;;22.80;58.10;;;;;;4573073;57;21151;-28
2021/11/04 11:16:54;;;;;;;90.15;66.40;;;22.80;57.90;;;;;;4552908;58;21059;-28
2021/11/04 11:21:56;;;;;;;92.20;71.00;;;22.80;57.90;;;;;;4564236;57;21746;-31
2021/11/04 11:26:59;;;;;;;91.10;69.22;;;22.90;58.00;;;;;;4556557;57;21079;-27
2021/11/04 11:32:00;;;;;;;96.68;71.50;;;22.80;57.80;;;;;;4575157;57;21613;-32
2021/11/04 11:37:21;;;;;;;96.45;74.57;;;22.80;57.70;;;;;;4556268;57;21026;-27
2021/11/04 11:42:26;;;;;;;99.70;77.72;;;22.80;57.80;;;;;;4585290;57;21528;-30
2021/11/04 11:47:40;;;;;;;104.75;79.90;;;22.80;57.80;;;;;;4592959;57;21115;-25
2021/11/04 11:52:44;;;;;;;103.87;82.10;;;22.80;57.90;;;;;;4556199;61;21055;-28
2021/11/04 11:58:22;;;;;;;100.93;82.97;;;22.80;57.90;;;;;;4592801;57;21171;-28
2021/11/04 12:06:02;;;;;;;110.55;84.00;;;22.90;58.60;;;;;;4573521;57;21616;-27
2021/11/04 12:11:07;;;;;;;113.53;86.87;;;22.90;59.00;;;;;;4560117;57;21102;-26
2021/11/04 12:16:20;;;;;;;117.60;89.47;;;22.90;59.20;;;;;;4567132;57;21153;-18
2021/11/04 12:21:38;;;;;;;118.35;92.35;;;22.90;58.90;;;;;;4567900;57;21075;-27
2021/11/04 12:26:41;;;;;;;;;;;22.90;58.80;;;;;;4571847;57;21212;-25
2021/11/04 12:31:48;;;;;;;115.05;91.32;;;22.80;58.60;;;;;;4593408;57;20148;-25
2021/11/04 12:36:54;;;;;;;122.82;92.50;;;22.80;58.60;;;;;;4556904;59;21826;-25
2021/11/04 12:42:00;;;;;;;117.65;91.75;;;22.80;58.50;;;;;;4586131;57;21052;-27
2021/11/04 12:47:02;;;;;;;114.00;87.32;;;22.80;58.50;;;;;;4570733;57;21055;-22
2021/11/04 12:52:05;;;;;;;118.43;88.20;;;22.90;58.80;;;;;;4567814;57;21124;-29
2021/11/04 12:57:13;;;;;;;108.65;84.43;;;22.90;59.00;;;;;;4556769;61;21071;-26
2021/11/04 13:02:23;;;;;;;110.88;86.78;;;22.90;59.20;;;;;;4574643;57;21014;-27
2021/11/04 13:07:37;;;;;;;113.50;86.47;;;22.90;59.20;;;;;;4592633;57;21039;-26
2021/11/04 13:12:45;;;;;;;107.47;83.30;;;22.90;59.40;;;;;;4557212;57;21558;-28
2021/11/04 13:17:59;;;;;;;111.85;86.55;;;23.00;59.50;;;;;;4578368;57;21027;-28
2021/11/04 13:23:47;;;;;;;107.32;84.10;;;23.00;59.60;;;;;;4560061;57;22215;-25
2021/11/04 13:28:47;;;;;;;112.65;86.20;;;23.00;59.70;;;;;;4573573;57;21043;-28
2021/11/04 13:33:52;;;;;;;105.68;80.80;;;23.10;59.90;;;;;;4556429;61;21540;-25
2021/11/04 13:39:01;;;;;;;108.30;85.20;;;23.10;59.80;;;;;;4557301;58;21600;-26
2021/11/04 13:44:15;;;;;;;103.68;82.15;;;23.10;60.00;;;;;;4571759;57;21095;-27
2021/11/04 13:49:17;;;;;;;104.32;83.43;;;23.10;60.00;;;;;;4555293;61;21540;-21
2021/11/04 13:54:30;;;;;;;108.82;82.20;;;23.10;60.00;;;;;;4556729;58;22230;-23
2021/11/04 13:59:42;;;;;;;104.38;81.72;;;23.10;60.00;;;;;;4586196;57;21147;-25
2021/11/04 14:04:57;;;;;;;106.22;80.87;;;23.10;60.20;;;;;;4578356;57;21063;-23
2021/11/04 14:10:10;;;;;;;100.65;80.43;;;23.10;60.10;;;;;;4559481;57;21047;-25
2021/11/04 14:15:55;;;;;;;101.80;80.32;;;23.20;60.30;;;;;;4600772;57;21039;-33
2021/11/04 14:20:56;;;;;;;102.68;79.95;;;23.10;60.50;;;;;;4756248;57;21531;-27
2021/11/04 14:25:56;;;;;;;103.30;81.07;;;23.20;60.40;;;;;;4555830;57;21127;-24
2021/11/04 14:30:57;;;;;;;96.80;75.93;;;23.10;60.40;;;;;;4561223;57;21040;-28
2021/11/04 14:35:58;;;;;;;101.00;78.60;;;23.10;60.40;;;;;;4563471;57;21405;-21
2021/11/04 14:40:59;;;;;;;101.47;78.05;;;23.10;60.50;;;;;;4587832;57;21079;-25
2021/11/04 14:46:00;;;;;;;105.22;80.57;;;23.10;60.50;;;;;;4559733;57;21095;-27
2021/11/04 14:51:02;;;;;;;101.55;79.90;;;23.10;60.60;;;;;;4556495;61;21063;-29
2021/11/04 14:56:05;;;;;;;107.15;83.07;;;23.10;60.70;;;;;;4569345;57;21533;-30
2021/11/04 15:01:06;;;;;;;110.00;83.87;;;23.10;60.80;;;;;;4589928;57;21637;-28
2021/11/04 15:06:07;;;;;;;108.20;82.57;;;23.10;60.80;;;;;;4573852;57;21104;-29
2021/11/04 15:11:08;;;;;;;104.80;81.87;;;23.10;60.80;;;;;;4572289;57;21075;-24
2021/11/04 15:16:10;;;;;;;109.18;83.05;;;23.00;60.80;;;;;;4561435;57;21086;-24
2021/11/04 15:21:11;;;;;;;110.12;84.75;;;23.00;60.70;;;;;;4568196;57;21536;-26
2021/11/04 15:26:12;;;;;;;108.35;82.82;;;23.00;60.60;;;;;;4569042;57;21099;-21
2021/11/04 15:31:13;;;;;;;107.35;81.63;;;23.00;61.20;;;;;;4556675;61;21047;-27
2021/11/04 15:36:14;;;;;;;107.22;81.28;;;22.90;60.50;;;;;;4556868;61;21145;-26
2021/11/04 15:41:15;;;;;;;103.28;76.65;;;22.90;60.60;;;;;;4565404;57;21103;-26
2021/11/04 15:46:16;;;;;;;100.55;78.00;;;22.90;60.60;;;;;;4576719;57;21099;-25
2021/11/04 15:51:17;;;;;;;101.87;79.40;;;22.90;60.70;;;;;;4575245;57;21068;-26
2021/11/04 15:56:18;;;;;;;109.85;79.80;;;22.90;60.80;;;;;;4580939;57;21151;-25
2021/11/04 16:01:19;;;;;;;103.90;77.07;;;22.90;61.00;;;;;;4564272;57;21036;-21
2021/11/04 16:08:12;;;;;;;101.45;78.85;;;22.90;61.10;;;;;;4582841;57;21205;-26
2021/11/04 16:13:13;;;;;;;99.18;74.37;;;22.90;61.50;;;;;;4566865;57;21546;-24
2021/11/04 16:18:14;;;;;;;96.35;74.40;;;22.90;61.30;;;;;;4557476;57;21099;-22
2021/11/04 16:23:14;;;;;;;96.10;75.40;;;22.80;61.30;;;;;;4571076;57;21561;-24
2021/11/04 16:28:15;;;;;;;95.80;75.82;;;22.80;61.30;;;;;;4582855;57;21043;-24
2021/11/04 16:33:16;;;;;;;93.75;72.60;;;22.80;61.30;;;;;;4565887;57;21060;-27
2021/11/04 16:38:17;;;;;;;93.12;72.60;;;22.70;61.40;;;;;;4557337;61;21506;-22
2021/11/04 16:43:18;;;;;;;94.00;73.40;;;22.70;61.30;;;;;;4568949;57;21079;-28
2021/11/04 16:48:19;;;;;;;92.15;71.22;;;22.70;61.40;;;;;;4556659;61;21059;-30
2021/11/04 16:53:21;;;;;;;86.78;69.03;;;22.70;61.40;;;;;;4562705;57;21558;-25
2021/11/04 16:58:22;;;;;;;87.70;68.40;;;22.60;61.40;;;;;;4557668;61;21596;-26
2021/11/04 17:03:23;;;;;;;89.10;69.25;;;22.60;61.40;;;;;;4557260;57;21114;-27
2021/11/04 17:08:24;;;;;;;83.72;65.95;;;22.60;61.40;;;;;;4557366;61;21621;-29
2021/11/04 17:13:25;;;;;;;82.70;65.00;;;22.60;61.30;;;;;;4569046;57;21059;-29
2021/11/04 17:18:26;;;;;;;85.35;66.10;;;22.50;61.20;;;;;;4569275;57;21036;-27
2021/11/04 17:23:26;;;;;;;84.57;67.35;;;22.50;61.20;;;;;;4562336;57;21075;-30
2021/11/04 17:28:27;;;;;;;84.85;65.40;;;22.60;61.30;;;;;;4588112;57;21087;-30
2021/11/04 17:33:28;;;;;;;82.90;65.53;;;22.50;61.20;;;;;;4583091;57;21569;-25
2021/11/04 17:38:29;;;;;;;81.37;64.35;;;22.50;61.20;;;;;;4579737;57;21066;-31
2021/11/04 17:43:30;;;;;;;82.62;64.68;;;22.50;61.20;;;;;;4569772;57;21143;-28
2021/11/04 17:48:31;;;;;;;81.53;64.05;;;22.50;61.10;;;;;;4592238;57;21198;-21
2021/11/04 17:53:32;;;;;;;77.97;61.92;;;22.50;61.10;;;;;;4572404;57;21067;-28
2021/11/04 17:58:33;;;;;;;79.15;63.08;;;22.50;61.10;;;;;;4580045;57;21581;-22
2021/11/04 18:03:35;;;;;;;77.93;63.00;;;22.50;61.00;;;;;;4572372;57;21107;-24
2021/11/04 18:08:36;;;;;;;79.97;62.22;;;22.50;61.00;;;;;;4557488;61;21099;-29
2021/11/04 18:13:38;;;;;;;79.03;63.80;;;22.40;61.00;;;;;;4574702;57;21577;-29
2021/11/04 18:18:39;;;;;;;81.40;64.43;;;22.50;61.00;;;;;;4563181;57;21497;-24
2021/11/04 18:23:41;;;;;;;78.80;62.62;;;22.40;60.90;;;;;;4575928;57;21075;-29
2021/11/04 18:28:43;;;;;;;75.87;61.85;;;22.50;60.90;;;;;;4598919;57;21532;-23
2021/11/04 18:33:44;;;;;;;77.35;61.15;;;22.50;60.90;;;;;;4602778;57;22194;-31
2021/11/04 18:38:44;;;;;;;78.05;61.10;;;22.40;60.80;;;;;;4566586;57;21031;-23
2021/11/04 18:43:45;;;;;;;75.68;59.83;;;22.40;60.90;;;;;;4557538;61;21038;-27
2021/11/04 18:48:46;;;;;;;77.60;61.50;;;22.40;60.80;;;;;;4580153;57;21168;-22
2021/11/04 18:53:47;;;;;;;77.93;61.55;;;22.40;60.80;;;;;;4573634;57;21054;-30
2021/11/04 18:58:48;;;;;;;73.22;58.70;;;22.40;60.70;;;;;;4583637;57;21111;-24
2021/11/04 19:03:49;;;;;;;73.70;60.65;;;22.40;60.70;;;;;;4580690;57;21233;-26
2021/11/04 19:08:50;;;;;;;74.90;59.65;;;22.40;60.70;;;;;;4581360;57;21103;-26
2021/11/04 19:13:51;;;;;;;71.20;57.75;;;22.40;60.70;;;;;;4561762;57;21131;-21
2021/11/04 19:18:52;;;;;;;72.28;57.62;;;22.40;60.70;;;;;;4557233;61;21144;-23
2021/11/04 19:23:52;;;;;;;72.30;58.58;;;22.40;60.70;;;;;;4573732;57;21537;-27
2021/11/04 19:28:53;;;;;;;70.00;57.55;;;22.40;60.60;;;;;;4602277;57;21132;-28
2021/11/04 19:33:55;;;;;;;68.78;56.35;;;22.40;60.60;;;;;;4557733;57;21536;-24
2021/11/04 19:38:56;;;;;;;72.05;58.92;;;22.40;60.60;;;;;;4565566;57;21514;-26
2021/11/04 19:43:57;;;;;;;70.57;58.00;;;22.40;60.60;;;;;;4565317;57;21050;-28
2021/11/04 19:48:58;;;;;;;73.05;58.70;;;22.40;60.60;;;;;;4561202;57;21051;-24
2021/11/04 19:53:59;;;;;;;71.25;58.22;;;22.40;60.60;;;;;;4572809;57;21051;-27
2021/11/04 19:59:00;;;;;;;70.85;56.33;;;22.40;60.50;;;;;;4565147;57;21505;-26
2021/11/04 20:04:01;;;;;;;65.75;53.33;;;22.40;60.50;;;;;;4557418;61;21055;-26
2021/11/04 20:09:03;;;;;;;67.30;56.25;;;22.40;60.50;;;;;;4572859;57;21553;-27
2021/11/04 20:14:04;;;;;;;72.03;56.37;;;22.40;60.50;;;;;;4577338;57;21126;-28
2021/11/04 20:19:06;;;;;;;65.25;53.47;;;22.40;60.50;;;;;;4557850;58;21126;-26
2021/11/04 20:24:07;;;;;;;66.65;54.80;;;22.40;60.40;;;;;;4557637;61;21060;-28
2021/11/04 20:29:09;;;;;;;67.65;54.85;;;22.40;60.40;;;;;;4564036;57;21114;-26
2021/11/04 20:34:10;;;;;;;66.50;53.75;;;22.40;60.40;;;;;;4579880;57;21095;-26
2021/11/04 20:39:11;;;;;;;66.25;54.05;;;22.40;60.40;;;;;;4590824;57;21094;-32
2021/11/04 20:44:12;;;;;;;68.32;53.80;;;22.40;60.40;;;;;;4579914;57;22291;-32
2021/11/04 20:49:13;;;;;;;63.20;52.42;;;22.40;60.40;;;;;;4572385;57;21131;-31
2021/11/04 20:54:14;;;;;;;64.43;51.63;;;22.40;60.40;;;;;;4558154;58;21533;-27
2021/11/04 20:59:15;;;;;;;64.00;53.05;;;22.40;60.40;;;;;;4557644;61;21087;-27
2021/11/04 21:04:16;;;;;;;65.90;53.45;;;22.30;60.30;;;;;;4580757;57;21038;-25
2021/11/04 21:09:17;;;;;;;65.45;52.25;;;22.40;60.30;;;;;;4558098;61;21043;-27
2021/11/04 21:14:18;;;;;;;64.57;53.42;;;22.40;60.30;;;;;;4557446;57;21067;-27
2021/11/04 21:19:19;;;;;;;64.15;52.03;;;22.40;60.30;;;;;;4571225;57;21058;-20
2021/11/04 21:24:21;;;;;;;63.72;51.92;;;22.40;60.30;;;;;;4559593;57;21063;-27
2021/11/04 21:29:21;;;;;;;63.13;51.80;;;22.30;60.20;;;;;;4568805;57;21135;-28
2021/11/04 21:34:22;;;;;;;63.83;52.08;;;22.40;60.30;;;;;;4579232;57;21087;-26
2021/11/04 21:39:24;;;;;;;63.03;51.42;;;22.30;60.20;;;;;;4571352;57;21087;-24
2021/11/04 21:44:29;;;;;;;61.03;50.47;;;22.40;60.20;;;;;;4574681;57;21099;-21
2021/11/04 21:49:32;;;;;;;59.30;49.60;;;22.30;60.20;;;;;;4563953;57;21130;-26
2021/11/04 21:54:33;;;;;;;62.92;50.67;;;22.30;60.20;;;;;;4607002;57;21040;-26
2021/11/04 21:59:34;;;;;;;60.00;49.45;;;22.40;60.30;;;;;;4591440;57;21042;-21
2021/11/04 22:04:36;;;;;;;59.95;48.95;;;22.30;60.20;;;;;;4585915;57;21087;-25
2021/11/04 22:09:38;;;;;;;60.00;49.85;;;22.30;60.10;;;;;;4578678;57;21058;-21
2021/11/04 22:14:39;;;;;;;59.05;48.97;;;22.30;60.10;;;;;;4592102;57;21593;-22
2021/11/04 22:19:39;;;;;;;55.72;48.25;;;22.30;60.10;;;;;;4567229;57;21141;-24
2021/11/04 22:24:40;;;;;;;59.30;47.88;;;22.30;60.10;;;;;;4588846;57;21056;-27
2021/11/04 22:29:42;;;;;;;61.00;49.53;;;22.30;60.10;;;;;;4556854;60;21094;-25
2021/11/04 22:34:44;;;;;;;60.80;47.90;;;22.30;60.10;;;;;;4559708;57;21517;-25
2021/11/04 22:39:46;;;;;;;64.10;49.83;;;22.30;60.00;;;;;;4557854;57;21074;-26
2021/11/04 22:44:47;;;;;;;55.92;47.15;;;22.30;60.00;;;;;;4596525;57;21039;-26
2021/11/04 22:49:48;;;;;;;59.30;47.80;;;22.30;60.10;;;;;;4562314;57;21059;-21
2021/11/04 22:54:49;;;;;;;53.40;45.47;;;22.30;60.00;;;;;;4576311;57;21539;-24
2021/11/04 22:59:50;;;;;;;56.63;47.42;;;22.30;60.00;;;;;;4570025;57;21100;-24
2021/11/04 23:04:51;;;;;;;56.30;46.22;;;22.30;59.90;;;;;;4583176;57;21055;-28
2021/11/04 23:09:54;;;;;;;56.37;46.72;;;22.30;59.90;;;;;;4608715;57;21059;-27
2021/11/04 23:14:56;;;;;;;54.47;44.53;;;22.30;59.90;;;;;;4573387;57;22091;-23
2021/11/04 23:19:57;;;;;;;54.78;44.97;;;22.30;59.90;;;;;;4593952;57;21063;-23
2021/11/04 23:24:59;;;;;;;52.50;44.67;;;22.30;59.90;;;;;;4557989;57;22273;-24
2021/11/04 23:30:00;;;;;;;55.63;44.55;;;22.30;59.90;;;;;;4557558;59;21051;-29
2021/11/04 23:35:01;;;;;;;53.83;44.45;;;22.30;59.80;;;;;;4561140;57;21055;-28
2021/11/04 23:40:03;;;;;;;55.95;43.95;;;22.30;59.80;;;;;;4586336;57;21729;-31
2021/11/04 23:45:05;;;;;;;53.55;44.88;;;22.30;59.80;;;;;;4584421;57;21080;-32
2021/11/04 23:50:06;;;;;;;51.60;44.15;;;22.30;59.80;;;;;;4592168;57;21076;-28
2021/11/04 23:55:09;;;;;;;50.47;42.30;;;22.30;59.80;;;;;;4569784;57;21025;-28
